createdAt,value
2022-12-28T00:01:07.426Z,101136.03
2022-12-28T00:03:52.144Z,101139.06
2022-12-28T00:06:36.004Z,101155.28
2022-12-28T00:09:19.791Z,101180.44
2022-12-28T00:12:03.548Z,101189.78
2022-12-28T00:14:48.795Z,101189.34
2022-12-28T00:17:32.533Z,101149.25
2022-12-28T00:20:16.569Z,101083.69
2022-12-28T00:23:00.385Z,101188.81
2022-12-28T00:25:44.168Z,101205.44
2022-12-28T00:28:27.934Z,101199.09
2022-12-28T00:31:13.294Z,101190.44
2022-12-28T00:33:57.144Z,101181.38
2022-12-28T00:37:09.377Z,101208.47
2022-12-28T00:39:46.164Z,101212.28
2022-12-28T00:42:31.963Z,101226.66
2022-12-28T00:45:15.870Z,101221.50
2022-12-28T00:48:02.614Z,101230.31
2022-12-28T00:50:46.747Z,101224.66
2022-12-28T00:53:30.487Z,101208.88
2022-12-28T00:56:15.679Z,101232.59
2022-12-28T00:59:01.018Z,101228.22
2022-12-28T01:01:45.117Z,101243.81
2022-12-28T01:04:30.387Z,101231.56
2022-12-28T01:07:14.166Z,101231.75
2022-12-28T01:09:58.149Z,101242.22
2022-12-28T01:12:42.089Z,101227.69
2022-12-28T01:15:25.869Z,101237.97
2022-12-28T01:18:09.663Z,101238.22
2022-12-28T01:20:57.985Z,101266.16
2022-12-28T01:23:42.001Z,101285.97
2022-12-28T01:26:27.547Z,101291.25
2022-12-28T01:29:12.667Z,101292.31
2022-12-28T01:31:56.491Z,101287.84
2022-12-28T01:34:40.443Z,101283.91
2022-12-28T01:37:25.664Z,101289.00
2022-12-28T01:40:14.633Z,101293.34
2022-12-28T01:42:58.669Z,101294.50
2022-12-28T01:45:46.310Z,101263.44
2022-12-28T01:48:30.109Z,101311.84
2022-12-28T01:51:14.018Z,101310.53
2022-12-28T01:54:02.109Z,101320.06
2022-12-28T01:56:46.294Z,101314.91
2022-12-28T01:59:33.081Z,101308.97
2022-12-28T02:02:17.237Z,101294.00
2022-12-28T02:05:02.096Z,101297.53
2022-12-28T02:07:53.647Z,101289.81
2022-12-28T02:10:41.115Z,101279.59
2022-12-28T02:13:29.601Z,101293.38
2022-12-28T02:16:34.486Z,101282.16
2022-12-28T02:19:31.197Z,101300.72
2022-12-28T02:22:46.743Z,101306.13
2022-12-28T02:26:23.985Z,101314.81
2022-12-28T02:29:39.376Z,101306.81
2022-12-28T02:32:46.559Z,101298.25
2022-12-28T02:35:38.400Z,101298.16
2022-12-28T02:38:29.540Z,101311.44
2022-12-28T02:41:17.132Z,101316.09
2022-12-28T02:44:02.452Z,101293.16
2022-12-28T02:47:07.220Z,101241.34
2022-12-28T02:50:09.097Z,101306.59
2022-12-28T02:53:20.620Z,101324.81
2022-12-28T02:56:16.678Z,101330.19
2022-12-28T02:59:24.124Z,101323.19
2022-12-28T03:02:35.831Z,101331.91
2022-12-28T03:05:45.107Z,101322.44
2022-12-28T03:08:39.858Z,101333.72
2022-12-28T03:11:34.198Z,101316.50
2022-12-28T03:14:23.954Z,101345.28
2022-12-28T03:17:28.552Z,101368.69
2022-12-28T03:20:37.805Z,101365.25
2022-12-28T03:23:41.832Z,101379.25
2022-12-28T03:26:43.213Z,101391.34
2022-12-28T03:29:47.315Z,101368.00
2022-12-28T03:32:31.708Z,101375.00
2022-12-28T03:35:17.721Z,101377.44
2022-12-28T03:38:04.106Z,101374.84
2022-12-28T03:40:51.384Z,101374.13
2022-12-28T03:43:45.348Z,101363.50
2022-12-28T03:46:40.946Z,101381.66
2022-12-28T03:49:26.302Z,101394.78
2022-12-28T03:52:14.105Z,101393.75
2022-12-28T03:54:58.032Z,101376.25
2022-12-28T03:57:42.297Z,101395.66
2022-12-28T04:00:32.442Z,101406.97
2022-12-28T04:03:16.257Z,101407.69
2022-12-28T04:06:00.480Z,101423.28
2022-12-28T04:08:46.643Z,101381.34
2022-12-28T04:11:30.939Z,101250.31
2022-12-28T04:14:15.792Z,101419.38
2022-12-28T04:17:01.223Z,101415.91
2022-12-28T04:19:45.115Z,101410.63
2022-12-28T04:22:28.889Z,101423.97
2022-12-28T04:25:16.640Z,101428.38
2022-12-28T04:28:00.642Z,101422.88
2022-12-28T04:31:13.381Z,101272.03
2022-12-28T04:34:01.851Z,101435.09
2022-12-28T04:36:48.919Z,101437.06
2022-12-28T04:39:55.853Z,101452.09
2022-12-28T04:42:41.510Z,101457.09
2022-12-28T04:45:25.394Z,101305.22
2022-12-28T04:48:09.221Z,101457.09
2022-12-28T04:50:53.264Z,101465.53
2022-12-28T04:53:41.276Z,101429.91
2022-12-28T04:56:26.891Z,101472.31
2022-12-28T04:59:12.151Z,101492.44
2022-12-28T05:01:57.665Z,101449.59
2022-12-28T05:04:41.484Z,101474.94
2022-12-28T05:07:25.518Z,101478.66
2022-12-28T05:10:09.941Z,101484.50
2022-12-28T05:12:53.643Z,101454.03
2022-12-28T05:15:39.205Z,101392.69
2022-12-28T05:18:22.892Z,101476.75
2022-12-28T05:21:08.681Z,101494.47
2022-12-28T05:23:53.591Z,101493.78
2022-12-28T05:26:37.431Z,101456.81
2022-12-28T05:29:21.290Z,101503.44
2022-12-28T05:32:07.345Z,101502.53
2022-12-28T05:34:51.126Z,101472.91
2022-12-28T05:37:34.940Z,101503.94
2022-12-28T05:40:18.652Z,101493.66
2022-12-28T05:43:02.418Z,101502.19
2022-12-28T05:45:46.227Z,101521.25
2022-12-28T05:48:33.907Z,101513.63
2022-12-28T05:51:19.884Z,101499.69
2022-12-28T05:54:05.085Z,101497.19
2022-12-28T05:56:51.577Z,101534.00
2022-12-28T05:59:35.480Z,101538.06
2022-12-28T06:02:24.583Z,101534.28
2022-12-28T06:05:10.759Z,101541.84
2022-12-28T06:07:54.548Z,101530.50
2022-12-28T06:10:38.307Z,101538.03
2022-12-28T06:13:22.031Z,101547.84
2022-12-28T06:16:10.625Z,101555.00
2022-12-28T06:18:54.568Z,101553.75
2022-12-28T06:21:41.237Z,101563.09
2022-12-28T06:24:24.983Z,101557.56
2022-12-28T06:27:08.781Z,101554.72
2022-12-28T06:29:52.678Z,101564.13
2022-12-28T06:32:36.449Z,101559.25
2022-12-28T06:35:20.284Z,101564.56
2022-12-28T06:38:05.556Z,101565.56
2022-12-28T06:41:12.391Z,101566.53
2022-12-28T06:43:53.391Z,101548.16
2022-12-28T06:46:37.836Z,101561.31
2022-12-28T06:49:21.583Z,101544.72
2022-12-28T06:52:05.667Z,101557.81
2022-12-28T06:54:51.255Z,101567.38
2022-12-28T06:57:35.099Z,101578.59
2022-12-28T07:00:19.105Z,101462.97
2022-12-28T07:03:02.900Z,101575.06
2022-12-28T07:05:46.710Z,101575.09
2022-12-28T07:08:30.980Z,101580.22
2022-12-28T07:11:18.235Z,101582.03
2022-12-28T07:14:01.969Z,101586.28
2022-12-28T07:16:45.932Z,101583.59
2022-12-28T07:19:29.833Z,101551.44
2022-12-28T07:22:13.592Z,101574.81
2022-12-28T07:24:57.428Z,101596.63
2022-12-28T07:27:42.841Z,101595.56
2022-12-28T07:30:26.710Z,101590.25
2022-12-28T07:33:10.600Z,101608.59
2022-12-28T07:35:54.299Z,101589.47
2022-12-28T07:38:38.481Z,101597.09
2022-12-28T07:41:24.498Z,101609.44
2022-12-28T07:44:09.591Z,101577.81
2022-12-28T07:46:53.279Z,101600.94
2022-12-28T07:49:37.091Z,101596.75
2022-12-28T07:52:20.884Z,101585.94
2022-12-28T07:55:05.178Z,101598.03
2022-12-28T07:57:48.984Z,101608.44
2022-12-28T08:00:34.060Z,101609.09
2022-12-28T08:03:17.931Z,101606.22
2022-12-28T08:06:10.876Z,101617.72
2022-12-28T08:08:57.188Z,101608.75
2022-12-28T08:11:42.463Z,101614.34
2022-12-28T08:14:26.206Z,101619.34
2022-12-28T08:17:14.885Z,101624.53
2022-12-28T08:20:02.919Z,101619.44
2022-12-28T08:22:47.536Z,101625.75
2022-12-28T08:25:31.322Z,101631.94
2022-12-28T08:28:15.149Z,101625.91
2022-12-28T08:30:59.052Z,101623.47
2022-12-28T08:33:44.557Z,101626.88
2022-12-28T08:36:29.013Z,101611.75
2022-12-28T08:39:12.937Z,101623.34
2022-12-28T08:41:57.328Z,101585.75
2022-12-28T08:44:41.058Z,101611.56
2022-12-28T08:47:24.885Z,101601.19
2022-12-28T08:50:12.323Z,101614.38
2022-12-28T08:52:56.411Z,101617.00
2022-12-28T08:55:40.335Z,101618.78
2022-12-28T08:58:24.128Z,101606.63
2022-12-28T09:01:09.651Z,101607.88
2022-12-28T09:03:55.999Z,101605.00
2022-12-28T09:06:41.430Z,101580.50
2022-12-28T09:09:25.193Z,101597.13
2022-12-28T09:12:09.039Z,101599.38
2022-12-28T09:14:52.801Z,101598.91
2022-12-28T09:17:36.708Z,101596.66
2022-12-28T09:20:20.505Z,101602.81
2022-12-28T09:23:05.769Z,101571.16
2022-12-28T09:25:49.735Z,101606.53
2022-12-28T09:28:33.545Z,101595.56
2022-12-28T09:31:18.372Z,101583.72
2022-12-28T09:37:07.176Z,101580.44
2022-12-28T09:39:54.627Z,101594.84
2022-12-28T09:42:43.986Z,101582.84
2022-12-28T09:45:28.335Z,101594.72
2022-12-28T09:48:17.176Z,101580.50
2022-12-28T09:51:01.304Z,101590.38
2022-12-28T09:53:45.405Z,101569.72
2022-12-28T09:56:36.260Z,101582.44
2022-12-28T09:59:23.180Z,101577.94
2022-12-28T10:02:20.119Z,101583.47
2022-12-28T10:05:04.066Z,101584.00
2022-12-28T10:07:47.911Z,101565.13
2022-12-28T10:10:31.979Z,101562.66
2022-12-28T10:13:53.057Z,101556.47
2022-12-28T10:16:26.869Z,101570.56
2022-12-28T10:19:12.470Z,101573.53
2022-12-28T10:22:01.207Z,101553.13
2022-12-28T10:24:45.995Z,101565.50
2022-12-28T10:27:32.526Z,101550.16
2022-12-28T10:30:21.151Z,101557.16
2022-12-28T10:33:06.322Z,101567.41
2022-12-28T10:35:53.930Z,101573.75
2022-12-28T10:38:38.162Z,101572.69
2022-12-28T10:41:22.685Z,101577.59
2022-12-28T10:44:38.775Z,101581.38
2022-12-28T10:47:31.488Z,101565.19
2022-12-28T10:50:43.576Z,101570.13
2022-12-28T10:53:30.395Z,101569.09
2022-12-28T10:56:24.424Z,101552.56
2022-12-28T10:59:21.935Z,101562.97
2022-12-28T11:02:25.112Z,101561.56
2022-12-28T11:05:21.095Z,101548.56
2022-12-28T11:08:06.830Z,101540.13
2022-12-28T11:10:58.152Z,101526.66
2022-12-28T11:13:42.197Z,101542.56
2022-12-28T11:16:26.116Z,101553.84
2022-12-28T11:19:10.255Z,101525.22
2022-12-28T11:21:55.491Z,101545.97
2022-12-28T11:24:41.481Z,101538.94
2022-12-28T11:27:25.825Z,101543.13
2022-12-28T11:30:17.758Z,101523.72
2022-12-28T11:33:05.009Z,101529.50
2022-12-28T11:35:50.976Z,101486.53
2022-12-28T11:38:40.857Z,101527.63
2022-12-28T11:41:56.220Z,101526.78
2022-12-28T11:44:53.407Z,101507.75
2022-12-28T11:47:37.436Z,101515.16
2022-12-28T11:50:51.656Z,101517.69
2022-12-28T11:53:57.570Z,101520.78
2022-12-28T11:56:59.932Z,101510.91
2022-12-28T11:59:43.924Z,101474.69
2022-12-28T12:02:41.803Z,101474.22
2022-12-28T12:05:54.313Z,101502.78
2022-12-28T12:08:43.410Z,101491.19
2022-12-28T12:11:33.529Z,101502.78
2022-12-28T12:14:19.705Z,101463.97
2022-12-28T12:17:07.651Z,101456.22
2022-12-28T12:19:56.889Z,101463.03
2022-12-28T12:22:49.234Z,101500.06
2022-12-28T12:25:39.020Z,101492.59
2022-12-28T12:28:36.815Z,101455.19
2022-12-28T12:31:29.483Z,101462.22
2022-12-28T12:34:19.933Z,101454.56
2022-12-28T12:37:30.275Z,101452.13
2022-12-28T12:40:53.685Z,101493.09
2022-12-28T12:43:51.343Z,101463.38
2022-12-28T12:47:06.263Z,101501.31
2022-12-28T12:50:16.282Z,101504.47
2022-12-28T12:53:07.721Z,101482.81
2022-12-28T12:56:00.658Z,101471.09
2022-12-28T12:58:58.346Z,101514.63
2022-12-28T13:01:51.237Z,101515.41
2022-12-28T13:04:36.720Z,101519.63
2022-12-28T13:07:23.470Z,101520.63
2022-12-28T13:10:16.361Z,101515.81
2022-12-28T13:13:01.828Z,101492.88
2022-12-28T13:15:47.098Z,101499.25
2022-12-28T13:18:46.812Z,101515.41
2022-12-28T13:21:32.566Z,101513.88
2022-12-28T13:24:22.240Z,101512.91
2022-12-28T13:27:20.309Z,101510.38
2022-12-28T13:30:04.893Z,101499.00
2022-12-28T13:32:53.741Z,101511.41
2022-12-28T13:35:37.591Z,101529.06
2022-12-28T13:38:21.401Z,101521.59
2022-12-28T13:41:18.134Z,101516.41
2022-12-28T13:44:22.730Z,101504.59
2022-12-28T13:47:12.370Z,101520.06
2022-12-28T13:50:01.794Z,101517.56
2022-12-28T13:52:52.953Z,101519.41
2022-12-28T13:55:41.376Z,101512.09
2022-12-28T13:58:33.057Z,101499.13
2022-12-28T14:01:21.216Z,101519.06
2022-12-28T14:04:50.719Z,101529.31
2022-12-28T14:07:16.138Z,101533.34
2022-12-28T14:10:00.455Z,101525.69
2022-12-28T14:12:46.119Z,101519.25
2022-12-28T14:15:31.033Z,101516.47
2022-12-28T14:18:18.580Z,101529.53
2022-12-28T14:21:04.209Z,101528.69
2022-12-28T14:23:49.459Z,101533.53
2022-12-28T14:26:34.189Z,101523.00
2022-12-28T14:29:23.965Z,101525.69
2022-12-28T14:32:15.117Z,101522.72
2022-12-28T14:35:02.443Z,101524.31
2022-12-28T14:37:51.242Z,101516.16
2022-12-28T14:40:36.756Z,101516.53
2022-12-28T14:43:25.866Z,101512.22
2022-12-28T14:46:17.977Z,101491.78
2022-12-28T14:49:22.218Z,101523.06
2022-12-28T14:52:41.165Z,101514.59
2022-12-28T14:55:30.594Z,101516.38
2022-12-28T14:58:22.506Z,101519.88
2022-12-28T15:01:09.651Z,101518.16
2022-12-28T15:03:55.074Z,101520.25
2022-12-28T15:06:38.908Z,101382.47
2022-12-28T15:09:23.148Z,101522.22
2022-12-28T15:12:12.561Z,101526.84
2022-12-28T15:14:57.822Z,101523.88
2022-12-28T15:17:41.576Z,101523.75
2022-12-28T15:20:25.873Z,101525.66
2022-12-28T15:23:09.638Z,101334.91
2022-12-28T15:25:53.440Z,101529.63
2022-12-28T15:28:37.280Z,101528.00
2022-12-28T15:31:23.266Z,101482.94
2022-12-28T15:34:07.198Z,101520.94
2022-12-28T15:36:52.306Z,101530.63
2022-12-28T15:39:36.321Z,101527.16
2022-12-28T15:42:20.118Z,101524.63
2022-12-28T15:45:03.982Z,101439.50
2022-12-28T15:47:49.314Z,101539.38
2022-12-28T15:50:33.406Z,101532.69
2022-12-28T15:53:18.270Z,101527.28
2022-12-28T15:56:02.697Z,101525.63
2022-12-28T15:58:46.472Z,101531.84
2022-12-28T16:01:32.492Z,101531.09
2022-12-28T16:04:17.820Z,101528.47
2022-12-28T16:07:01.657Z,101533.75
2022-12-28T16:09:46.908Z,101525.13
2022-12-28T16:12:30.705Z,101532.06
2022-12-28T16:15:14.549Z,101528.53
2022-12-28T16:17:58.460Z,101541.56
2022-12-28T16:20:43.605Z,101542.53
2022-12-28T16:23:27.460Z,101538.22
2022-12-28T16:26:13.108Z,101528.41
2022-12-28T16:28:57.916Z,101535.50
2022-12-28T16:31:42.532Z,101525.03
2022-12-28T16:34:28.023Z,101540.78
2022-12-28T16:37:13.414Z,101506.97
2022-12-28T16:39:57.184Z,101499.16
2022-12-28T16:42:46.016Z,101514.84
2022-12-28T16:45:30.318Z,101496.50
2022-12-28T16:48:16.048Z,101499.16
2022-12-28T16:51:01.003Z,101497.47
2022-12-28T16:53:46.641Z,101494.88
2022-12-28T16:56:30.617Z,101493.09
2022-12-28T16:59:17.194Z,101497.41
2022-12-28T17:02:01.930Z,101492.22
2022-12-28T17:04:46.209Z,101504.38
2022-12-28T17:07:30.229Z,101548.84
2022-12-28T17:10:16.038Z,101494.97
2022-12-28T17:13:00.158Z,101541.03
2022-12-28T17:15:45.932Z,101542.72
2022-12-28T17:18:29.867Z,101541.00
2022-12-28T17:21:13.686Z,101545.38
2022-12-28T17:23:58.209Z,101533.22
2022-12-28T17:26:43.373Z,101539.38
2022-12-28T17:29:27.264Z,101548.09
2022-12-28T17:32:11.229Z,101535.03
2022-12-28T17:34:55.030Z,101550.69
2022-12-28T17:37:38.886Z,101525.47
2022-12-28T17:40:22.773Z,101548.97
2022-12-28T17:43:08.063Z,101542.88
2022-12-28T17:45:52.022Z,101539.41
2022-12-28T17:48:35.851Z,101493.25
2022-12-28T17:51:19.646Z,101544.66
2022-12-28T17:54:03.714Z,101546.38
2022-12-28T17:56:47.480Z,101548.16
2022-12-28T17:59:32.705Z,101543.78
2022-12-28T18:02:16.800Z,101507.22
2022-12-28T18:05:00.608Z,101497.66
2022-12-28T18:07:44.447Z,101528.09
2022-12-28T18:10:28.386Z,101534.22
2022-12-28T18:13:13.089Z,101492.41
2022-12-28T18:15:58.557Z,101511.56
2022-12-28T18:18:42.385Z,101539.41
2022-12-28T18:21:27.088Z,101530.69
2022-12-28T18:24:13.890Z,101533.34
2022-12-28T18:26:57.748Z,101536.81
2022-12-28T18:29:42.886Z,101539.44
2022-12-28T18:32:28.143Z,101528.09
2022-12-28T18:35:12.141Z,101544.59
2022-12-28T18:37:56.009Z,101544.56
2022-12-28T18:40:39.751Z,101360.91
2022-12-28T18:43:24.088Z,101541.97
2022-12-28T18:46:09.093Z,101546.38
2022-12-28T18:48:54.467Z,101534.94
2022-12-28T18:51:38.217Z,101548.94
2022-12-28T18:54:22.050Z,101542.84
2022-12-28T18:57:05.975Z,101544.56
2022-12-28T18:59:50.113Z,101539.38
2022-12-28T19:02:34.203Z,101548.97
2022-12-28T19:05:20.817Z,101542.91
2022-12-28T19:08:04.901Z,101545.50
2022-12-28T19:10:50.272Z,101543.78
2022-12-28T19:13:35.530Z,101544.66
2022-12-28T19:16:24.602Z,101535.94
2022-12-28T19:19:17.036Z,101545.50
2022-12-28T19:22:02.372Z,101523.72
2022-12-28T19:24:46.127Z,101547.25
2022-12-28T19:27:29.882Z,101535.91
2022-12-28T19:30:14.573Z,101535.91
2022-12-28T19:32:58.538Z,101513.28
2022-12-28T19:35:42.633Z,101548.09
2022-12-28T19:38:27.847Z,101552.44
2022-12-28T19:41:14.783Z,101550.63
2022-12-28T19:43:58.729Z,101513.22
2022-12-28T19:46:42.514Z,101543.69
2022-12-28T19:49:26.490Z,101549.81
2022-12-28T19:52:10.464Z,101542.75
2022-12-28T19:54:55.656Z,101360.88
2022-12-28T19:57:39.626Z,101520.19
2022-12-28T20:00:23.642Z,101532.41
2022-12-28T20:03:08.272Z,101534.13
2022-12-28T20:05:52.205Z,101541.13
2022-12-28T20:08:36.663Z,101515.88
2022-12-28T20:11:22.444Z,101530.69
2022-12-28T20:14:06.285Z,101533.22
2022-12-28T20:16:52.196Z,101531.50
2022-12-28T20:19:35.966Z,101525.44
2022-12-28T20:22:19.767Z,101521.94
2022-12-28T20:25:03.620Z,101528.91
2022-12-28T20:27:48.835Z,101523.72
2022-12-28T20:30:32.918Z,101528.94
2022-12-28T20:33:17.674Z,101521.91
2022-12-28T20:36:04.587Z,101531.50
2022-12-28T20:38:48.963Z,101528.00
2022-12-28T20:41:51.888Z,101523.66
2022-12-28T20:44:37.978Z,101531.47
2022-12-28T20:47:21.760Z,101517.56
2022-12-28T20:50:06.242Z,101528.88
2022-12-28T20:52:53.813Z,101525.34
2022-12-28T20:55:37.635Z,101521.94
2022-12-28T20:58:21.841Z,101513.28
2022-12-28T21:01:08.231Z,101512.34
2022-12-28T21:03:52.121Z,101507.97
2022-12-28T21:06:36.326Z,101516.59
2022-12-28T21:09:20.164Z,101516.59
2022-12-28T21:12:03.976Z,101509.75
2022-12-28T21:14:47.777Z,101487.97
2022-12-28T21:17:35.278Z,101488.88
2022-12-28T21:20:19.112Z,101514.06
2022-12-28T21:23:02.922Z,101522.72
2022-12-28T21:25:46.761Z,101527.03
2022-12-28T21:28:31.105Z,101514.03
2022-12-28T21:31:15.653Z,101470.50
2022-12-28T21:34:00.854Z,101514.03
2022-12-28T21:36:44.689Z,101466.19
2022-12-28T21:39:28.481Z,101479.25
2022-12-28T21:42:12.322Z,101517.63
2022-12-28T21:44:56.178Z,101488.84
2022-12-28T21:47:40.077Z,101505.31
2022-12-28T21:50:25.272Z,101465.22
2022-12-28T21:53:09.012Z,101483.59
2022-12-28T21:55:52.776Z,101503.63
2022-12-28T21:58:36.504Z,101508.03
2022-12-28T22:01:38.051Z,101500.16
2022-12-28T22:04:41.600Z,101484.50
2022-12-28T22:07:26.817Z,101502.75
2022-12-28T22:10:28.335Z,101492.34
2022-12-28T22:13:14.725Z,101481.06
2022-12-28T22:15:58.570Z,101448.84
2022-12-28T22:19:01.323Z,101481.03
2022-12-28T22:21:46.236Z,101473.22
2022-12-28T22:24:31.550Z,101466.22
2022-12-28T22:27:15.322Z,101459.28
2022-12-28T22:29:59.454Z,101451.44
2022-12-28T22:32:43.280Z,101359.22
2022-12-28T22:35:27.436Z,101471.47
2022-12-28T22:38:11.280Z,101468.00
2022-12-28T22:41:00.582Z,101465.41
2022-12-28T22:43:44.393Z,101465.41
2022-12-28T22:46:28.213Z,101467.09
2022-12-28T22:49:12.089Z,101458.41
2022-12-28T22:51:55.888Z,101454.09
2022-12-28T22:54:39.710Z,101451.50
2022-12-28T22:57:24.899Z,101422.78
2022-12-28T23:00:13.210Z,101453.22
2022-12-28T23:02:57.007Z,101442.75
2022-12-28T23:05:41.508Z,101447.94
2022-12-28T23:08:25.306Z,101448.00
2022-12-28T23:11:36.533Z,101441.00
2022-12-28T23:14:43.127Z,101448.88
2022-12-28T23:17:27.635Z,101447.97
2022-12-28T23:20:30.064Z,101451.47
2022-12-28T23:23:31.438Z,101434.00
2022-12-28T23:26:32.871Z,101448.81
2022-12-28T23:29:16.605Z,101417.53
2022-12-28T23:32:01.936Z,101441.91
2022-12-28T23:34:45.710Z,101411.44
2022-12-28T23:37:29.571Z,101428.00
2022-12-28T23:40:15.796Z,101428.00
2022-12-28T23:42:59.538Z,101428.00
2022-12-28T23:45:43.323Z,101434.09
2022-12-28T23:48:28.471Z,101427.13
2022-12-28T23:51:12.234Z,101428.84
2022-12-28T23:53:56.289Z,101381.84
2022-12-28T23:56:40.149Z,101426.25
2022-12-28T23:59:24.152Z,101430.59
